Terminal Aerodrome Forecast
Issued by NWS

Home | Current Version | Previous Version | Text Only | Print | Product List | Glossary On
Versions: 1 2 3 4 5 6 7 8 9 10 11 12 13 14 15 16 17 18 19 20 21 22 23 24
000
FTUS46 KMTR 021500 CCA
TAFMRY
TAF COR
KMRY 021529Z 0215/0312 12003KT P6SM SKC
      TEMPO 0215/0217 BKN008
     FM021900 28011G17KT P6SM FEW015
     FM030300 25008G14KT P6SM OVC015
     FM030700 22006KT P6SM OVC008=

USA.gov is the U.S. government's official web portal to all federal, state and local government web resources and services.